createdAt,value
2023-02-19T00:02:35.796Z,99314.88
2023-02-19T00:06:40.306Z,99322.00
2023-02-19T00:10:45.963Z,99317.72
2023-02-19T00:14:48.948Z,99317.81
2023-02-19T00:18:52.360Z,99330.00
2023-02-19T00:22:57.110Z,99335.25
2023-02-19T00:27:00.205Z,99326.47
2023-02-19T00:31:07.993Z,99317.72
2023-02-19T00:35:11.051Z,99314.38
2023-02-19T00:39:18.806Z,99315.22
2023-02-19T00:43:22.283Z,99310.06
2023-02-19T00:47:25.000Z,99314.41
2023-02-19T00:51:30.797Z,99306.59
2023-02-19T00:55:35.620Z,99303.16
2023-02-19T00:59:38.798Z,99309.22
2023-02-19T01:03:42.001Z,99291.84
2023-02-19T01:07:44.614Z,99308.31
2023-02-19T01:11:48.986Z,99299.66
2023-02-19T01:15:51.860Z,99298.03
2023-02-19T01:19:55.155Z,99298.03
2023-02-19T01:23:58.910Z,99292.88
2023-02-19T01:28:03.573Z,99302.34
2023-02-19T01:32:06.568Z,99306.75
2023-02-19T01:36:10.123Z,99296.47
2023-02-19T01:40:13.576Z,99298.28
2023-02-19T01:44:56.778Z,99296.59
2023-02-19T01:49:06.938Z,99292.25
2023-02-19T01:53:13.322Z,99303.47
2023-02-19T01:57:23.211Z,99300.81
2023-02-19T02:01:26.440Z,99299.00
2023-02-19T02:05:47.086Z,99298.94
2023-02-19T02:10:09.962Z,99301.59
2023-02-19T02:14:12.810Z,99298.94
2023-02-19T02:18:21.907Z,99298.94
2023-02-19T02:22:31.217Z,99300.69
2023-02-19T02:26:52.912Z,99298.09
2023-02-19T02:31:01.174Z,99302.38
2023-02-19T02:35:09.984Z,99304.28
2023-02-19T02:39:16.601Z,99310.47
2023-02-19T02:43:19.564Z,99290.56
2023-02-19T02:47:37.945Z,99284.53
2023-02-19T02:51:43.142Z,99280.28
2023-02-19T02:55:48.950Z,99273.41
2023-02-19T02:59:52.387Z,99279.63
2023-02-19T03:04:03.654Z,99274.53
2023-02-19T03:08:11.201Z,99266.75
2023-02-19T03:12:38.466Z,99263.28
2023-02-19T03:17:01.852Z,99269.41
2023-02-19T03:21:10.999Z,99275.44
2023-02-19T03:25:35.497Z,99274.69
2023-02-19T03:29:41.507Z,99278.09
2023-02-19T03:33:50.008Z,99272.84
2023-02-19T03:38:03.674Z,99259.88
2023-02-19T03:42:14.326Z,99269.34
2023-02-19T03:46:24.099Z,99258.97
2023-02-19T03:50:31.899Z,99250.31
2023-02-19T03:54:45.762Z,99258.06
2023-02-19T03:58:55.246Z,99250.31
2023-02-19T04:03:03.876Z,99251.25
2023-02-19T04:07:07.398Z,99247.66
2023-02-19T04:11:13.173Z,99238.16
2023-02-19T04:15:22.820Z,99239.28
2023-02-19T04:19:28.451Z,99232.44
2023-02-19T04:23:37.806Z,99233.38
2023-02-19T04:27:43.156Z,99233.28
2023-02-19T04:31:46.112Z,99226.19
2023-02-19T04:35:48.933Z,99219.31
2023-02-19T04:39:51.976Z,99233.94
2023-02-19T04:43:56.312Z,99242.50
2023-02-19T04:47:59.952Z,99234.78
2023-02-19T04:52:02.645Z,99237.44
2023-02-19T04:56:09.723Z,99233.16
2023-02-19T05:00:15.211Z,99225.47
2023-02-19T05:04:18.310Z,99223.06
2023-02-19T05:08:21.307Z,99225.09
2023-02-19T05:12:24.422Z,99214.16
2023-02-19T05:16:29.263Z,99221.47
2023-02-19T05:20:32.274Z,99210.59
2023-02-19T05:24:35.305Z,99206.44
2023-02-19T05:28:38.383Z,99201.56
2023-02-19T05:32:42.760Z,99193.13
2023-02-19T05:36:45.775Z,99192.28
2023-02-19T05:40:49.214Z,99192.28
2023-02-19T05:44:52.177Z,99184.53
2023-02-19T05:48:58.866Z,99181.16
2023-02-19T05:53:03.521Z,99186.22
2023-02-19T05:57:06.422Z,99187.19
2023-02-19T06:01:16.566Z,99191.56
2023-02-19T06:05:21.509Z,99197.47
2023-02-19T06:09:24.449Z,99205.28
2023-02-19T06:13:27.328Z,99211.19
2023-02-19T06:17:30.021Z,99217.81
2023-02-19T06:21:34.230Z,99219.38
2023-02-19T06:25:37.161Z,99221.84
2023-02-19T06:29:40.159Z,99217.41
2023-02-19T06:33:44.819Z,99223.09
2023-02-19T06:37:52.057Z,99216.09
2023-02-19T06:41:57.219Z,99209.88
2023-02-19T06:46:01.628Z,99215.22
2023-02-19T06:50:07.962Z,99218.38
2023-02-19T06:54:12.388Z,99226.88
2023-02-19T06:58:15.702Z,99231.69
2023-02-19T07:02:18.461Z,99236.25
2023-02-19T07:06:21.761Z,99230.34
2023-02-19T07:10:26.481Z,99237.38
2023-02-19T07:14:30.207Z,99231.19
2023-02-19T07:18:33.798Z,99231.91
2023-02-19T07:22:36.950Z,99241.13
2023-02-19T07:26:41.370Z,99241.75
2023-02-19T07:30:44.599Z,99247.69
2023-02-19T07:34:47.596Z,99242.38
2023-02-19T07:38:56.657Z,99240.69
2023-02-19T07:43:03.979Z,99240.63
2023-02-19T07:47:08.571Z,99241.41
2023-02-19T07:51:16.735Z,99250.63
2023-02-19T07:55:19.979Z,99253.16
2023-02-19T07:59:24.695Z,99253.69
2023-02-19T08:03:27.863Z,99256.09
2023-02-19T08:07:33.773Z,99253.69
2023-02-19T08:11:54.154Z,99255.56
2023-02-19T08:16:18.655Z,99260.53
2023-02-19T08:20:27.402Z,99263.28
2023-02-19T08:24:34.087Z,99259.31
2023-02-19T08:28:37.488Z,99277.03
2023-02-19T08:32:41.811Z,99283.09
2023-02-19T08:36:45.060Z,99281.34
2023-02-19T08:40:47.948Z,99286.22
2023-02-19T08:44:53.099Z,99284.91
2023-02-19T08:48:57.414Z,99283.53
2023-02-19T08:53:02.313Z,99279.22
2023-02-19T08:57:07.807Z,99285.53
2023-02-19T09:01:12.738Z,99273.22
2023-02-19T09:05:17.495Z,99277.66
2023-02-19T09:09:20.524Z,99276.09
2023-02-19T09:13:23.602Z,99276.44
2023-02-19T09:17:29.584Z,99277.06
2023-02-19T09:21:34.290Z,99283.53
2023-02-19T09:25:37.504Z,99274.91
2023-02-19T09:29:40.768Z,99284.69
2023-02-19T09:33:45.259Z,99281.28
2023-02-19T09:37:49.416Z,99273.28
2023-02-19T09:41:55.451Z,99276.34
2023-02-19T09:46:04.890Z,99286.41
2023-02-19T09:50:09.174Z,99289.81
2023-02-19T09:54:22.027Z,99290.94
2023-02-19T09:58:30.641Z,99292.66
2023-02-19T10:02:34.627Z,99299.00
2023-02-19T10:06:38.351Z,99297.59
2023-02-19T10:10:42.898Z,99299.34
2023-02-19T10:14:51.860Z,99289.78
2023-02-19T10:18:56.807Z,99302.25
2023-02-19T10:23:03.701Z,99295.00
2023-02-19T10:27:13.611Z,99304.59
2023-02-19T10:31:20.828Z,99313.00
2023-02-19T10:35:23.867Z,99306.84
2023-02-19T10:39:42.447Z,99317.72
2023-02-19T10:43:54.948Z,99321.19
2023-02-19T10:47:58.761Z,99318.81
2023-02-19T10:52:05.765Z,99315.19
2023-02-19T10:56:10.784Z,99321.50
2023-02-19T11:00:27.030Z,99324.06
2023-02-19T11:04:34.343Z,99330.13
2023-02-19T11:08:49.043Z,99327.50
2023-02-19T11:12:53.224Z,99324.72
2023-02-19T11:16:59.305Z,99331.41
2023-02-19T11:21:07.430Z,99332.16
2023-02-19T11:25:25.748Z,99337.56
2023-02-19T11:29:34.889Z,99336.47
2023-02-19T11:33:46.085Z,99338.31
2023-02-19T11:38:00.221Z,99346.59
2023-02-19T11:42:30.280Z,99344.56
2023-02-19T11:46:46.524Z,99338.06
2023-02-19T11:51:06.910Z,99337.69
2023-02-19T11:55:18.056Z,99341.72
2023-02-19T11:59:32.588Z,99346.78
2023-02-19T12:04:06.320Z,99355.72
2023-02-19T12:08:47.722Z,99359.34
2023-02-19T12:13:03.316Z,99350.06
2023-02-19T12:17:16.771Z,99361.69
2023-02-19T12:21:30.442Z,99367.63
2023-02-19T12:25:56.438Z,99377.34
2023-02-19T12:30:26.668Z,99379.38
2023-02-19T12:35:03.591Z,99382.91
2023-02-19T12:39:17.841Z,99385.28
2023-02-19T12:43:22.512Z,99394.06
2023-02-19T12:47:33.629Z,99386.63
2023-02-19T12:51:42.911Z,99394.03
2023-02-19T12:55:47.277Z,99400.19
2023-02-19T12:59:57.478Z,99394.41
2023-02-19T13:04:17.630Z,99404.56
2023-02-19T13:08:27.802Z,99406.81
2023-02-19T13:12:34.894Z,99410.34
2023-02-19T13:16:43.728Z,99416.06
2023-02-19T13:20:52.167Z,99429.47
2023-02-19T13:24:57.294Z,99436.72
2023-02-19T13:29:12.857Z,99435.63
2023-02-19T13:33:35.322Z,99438.47
2023-02-19T13:37:42.397Z,99432.38
2023-02-19T13:41:52.368Z,99446.88
2023-02-19T13:46:01.103Z,99444.69
2023-02-19T13:50:09.939Z,99456.16
2023-02-19T13:54:30.604Z,99454.00
2023-02-19T13:58:55.177Z,99459.25
2023-02-19T14:03:28.879Z,99453.69
2023-02-19T14:07:55.144Z,99471.03
2023-02-19T14:12:19.674Z,99474.94
2023-02-19T14:16:53.895Z,99488.84
2023-02-19T14:21:09.646Z,99492.41
2023-02-19T14:25:22.640Z,99491.94
2023-02-19T14:29:30.519Z,99487.31
2023-02-19T14:33:35.524Z,99488.78
2023-02-19T14:37:41.983Z,99482.13
2023-02-19T14:41:48.949Z,99491.91
2023-02-19T14:45:57.851Z,99496.75
2023-02-19T14:50:04.421Z,99492.53
2023-02-19T14:54:16.260Z,99505.97
2023-02-19T14:58:24.214Z,99498.44
2023-02-19T15:02:32.260Z,99507.47
2023-02-19T15:06:39.974Z,99506.03
2023-02-19T15:10:44.897Z,99528.13
2023-02-19T15:14:49.669Z,99525.94
2023-02-19T15:19:00.621Z,99530.56
2023-02-19T15:23:05.950Z,99533.19
2023-02-19T15:27:18.297Z,99541.47
2023-02-19T15:31:21.348Z,99552.22
2023-02-19T15:35:28.202Z,99555.25
2023-02-19T15:39:36.252Z,99564.00
2023-02-19T15:43:45.936Z,99565.91
2023-02-19T15:47:53.328Z,99569.97
2023-02-19T15:52:03.038Z,99572.88
2023-02-19T15:56:10.645Z,99572.94
2023-02-19T16:00:24.284Z,99585.34
2023-02-19T16:04:27.722Z,99595.28
2023-02-19T16:08:36.780Z,99602.38
2023-02-19T16:12:39.532Z,99599.88
2023-02-19T16:16:44.497Z,99609.41
2023-02-19T16:20:51.392Z,99611.06
2023-02-19T16:24:59.369Z,99624.13
2023-02-19T16:29:02.590Z,99631.94
2023-02-19T16:33:38.598Z,99635.50
2023-02-19T16:37:44.466Z,99648.63
2023-02-19T16:42:19.888Z,99655.78
2023-02-19T16:46:29.498Z,99641.91
2023-02-19T16:50:34.250Z,99663.13
2023-02-19T16:54:37.174Z,99685.16
2023-02-19T16:58:41.658Z,99673.16
2023-02-19T17:02:44.838Z,99690.66
2023-02-19T17:06:48.760Z,99692.78
2023-02-19T17:10:51.668Z,99696.59
2023-02-19T17:14:55.940Z,99692.78
2023-02-19T17:19:01.729Z,99691.75
2023-02-19T17:23:04.619Z,99702.19
2023-02-19T17:27:11.798Z,99709.81
2023-02-19T17:31:17.029Z,99702.78
2023-02-19T17:35:19.821Z,99711.25
2023-02-19T17:39:25.409Z,99719.34
2023-02-19T17:43:28.570Z,99729.03
2023-02-19T17:47:33.021Z,99733.22
2023-02-19T17:51:36.377Z,99738.34
2023-02-19T17:55:39.403Z,99734.38
2023-02-19T17:59:42.637Z,99759.72
2023-02-19T18:03:49.793Z,99777.25
2023-02-19T18:07:53.848Z,99780.34
2023-02-19T18:11:56.512Z,99779.78
2023-02-19T18:15:59.618Z,99793.00
2023-02-19T18:20:06.074Z,99788.91
2023-02-19T18:24:08.731Z,99789.97
2023-02-19T18:28:11.511Z,99795.84
2023-02-19T18:32:14.224Z,99801.44
2023-02-19T18:36:18.681Z,99794.06
2023-02-19T18:40:21.994Z,99796.19
2023-02-19T18:44:26.415Z,99801.44
2023-02-19T18:48:29.586Z,99806.09
2023-02-19T18:52:34.140Z,99816.66
2023-02-19T18:56:43.150Z,99826.19
2023-02-19T19:00:46.020Z,99828.19
2023-02-19T19:04:51.502Z,99842.13
2023-02-19T19:08:56.067Z,99835.88
2023-02-19T19:13:03.450Z,99852.09
2023-02-19T19:17:07.030Z,99857.53
2023-02-19T19:21:10.010Z,99852.56
2023-02-19T19:25:15.392Z,99854.41
2023-02-19T19:29:23.111Z,99872.84
2023-02-19T19:33:28.119Z,99870.66
2023-02-19T19:37:31.972Z,99870.06
2023-02-19T19:41:36.353Z,99880.66
2023-02-19T19:45:42.239Z,99889.88
2023-02-19T19:49:47.629Z,99887.16
2023-02-19T19:53:54.015Z,99888.81
2023-02-19T19:57:58.585Z,99881.28
2023-02-19T20:02:02.954Z,99884.69
2023-02-19T20:06:06.797Z,99884.69
2023-02-19T20:10:11.694Z,99886.03
2023-02-19T20:14:19.934Z,99880.34
2023-02-19T20:18:26.204Z,99880.56
2023-02-19T20:22:29.208Z,99901.25
2023-02-19T20:26:33.086Z,99897.59
2023-02-19T20:30:37.722Z,99908.19
2023-02-19T20:34:41.535Z,99911.09
2023-02-19T20:38:46.479Z,99925.81
2023-02-19T20:42:49.609Z,99923.22
2023-02-19T20:46:54.563Z,99924.13
2023-02-19T20:50:59.800Z,99925.78
2023-02-19T20:55:03.042Z,99937.91
2023-02-19T20:59:06.147Z,99931.63
2023-02-19T21:03:11.852Z,99941.16
2023-02-19T21:07:15.408Z,99943.00
2023-02-19T21:11:18.566Z,99943.22
2023-02-19T21:15:21.901Z,99950.94
2023-02-19T21:19:29.860Z,99959.06
2023-02-19T21:23:33.217Z,99967.78
2023-02-19T21:27:36.392Z,99960.81
2023-02-19T21:31:40.956Z,99970.88
2023-02-19T21:35:45.453Z,99981.28
2023-02-19T21:39:48.717Z,99977.28
2023-02-19T21:43:51.894Z,99979.06
2023-02-19T21:47:56.842Z,99968.44
2023-02-19T21:52:01.713Z,99965.88
2023-02-19T21:56:05.225Z,99976.41
2023-02-19T22:00:10.219Z,99969.81
2023-02-19T22:04:15.967Z,99980.25
2023-02-19T22:08:22.760Z,99981.88
2023-02-19T22:12:26.136Z,99979.22
2023-02-19T22:16:29.847Z,99984.41
2023-02-19T22:20:35.122Z,99988.47
2023-02-19T22:24:42.395Z,99988.34
2023-02-19T22:28:46.087Z,99990.16
2023-02-19T22:32:49.172Z,100003.31
2023-02-19T22:36:52.445Z,99993.03
2023-02-19T22:40:57.014Z,99984.00
2023-02-19T22:45:00.026Z,99995.81
2023-02-19T22:49:05.607Z,99997.91
2023-02-19T22:53:08.830Z,100000.78
2023-02-19T22:57:13.429Z,99998.84
2023-02-19T23:01:17.641Z,99992.81
2023-02-19T23:05:20.902Z,99995.22
2023-02-19T23:09:26.811Z,99990.63
2023-02-19T23:13:33.969Z,99996.97
2023-02-19T23:17:36.861Z,99988.16
2023-02-19T23:21:40.360Z,99989.78
2023-02-19T23:25:46.188Z,99992.84
2023-02-19T23:29:50.673Z,100000.63
2023-02-19T23:33:53.778Z,99992.75
2023-02-19T23:37:56.887Z,99987.47
2023-02-19T23:41:59.905Z,99998.47
2023-02-19T23:46:04.657Z,100004.34
2023-02-19T23:50:08.810Z,99994.72
2023-02-19T23:54:12.540Z,99978.13
2023-02-19T23:58:18.444Z,99980.75
